sensor_id;sensor_type;location;lat;lon;timestamp;pressure;altitude;pressure_sealevel;temperature;humidity
61109;BME280;46995;55.740;37.402;2023-02-28T00:00:23;100020.03;;;-7.33;79.78
61109;BME280;46995;55.740;37.402;2023-02-28T00:02:49;99991.91;;;-7.50;79.95
61109;BME280;46995;55.740;37.402;2023-02-28T00:05:19;100031.06;;;-7.23;79.45
61109;BME280;46995;55.740;37.402;2023-02-28T00:07:46;99986.75;;;-7.48;80.01
61109;BME280;46995;55.740;37.402;2023-02-28T00:10:14;100002.94;;;-7.34;79.27
61109;BME280;46995;55.740;37.402;2023-02-28T00:12:41;100006.31;;;-7.31;79.77
61109;BME280;46995;55.740;37.402;2023-02-28T00:15:09;100015.59;;;-7.16;80.14
61109;BME280;46995;55.740;37.402;2023-02-28T00:17:36;100008.84;;;-7.26;79.81
61109;BME280;46995;55.740;37.402;2023-02-28T00:20:02;100019.09;;;-7.26;80.06
61109;BME280;46995;55.740;37.402;2023-02-28T00:22:30;100015.69;;;-7.25;79.81
61109;BME280;46995;55.740;37.402;2023-02-28T00:24:57;100006.19;;;-7.15;79.73
61109;BME280;46995;55.740;37.402;2023-02-28T00:27:23;100011.34;;;-7.17;79.01
61109;BME280;46995;55.740;37.402;2023-02-28T00:29:50;100002.84;;;-7.25;79.22
61109;BME280;46995;55.740;37.402;2023-02-28T00:32:16;100003.72;;;-7.26;79.29
61109;BME280;46995;55.740;37.402;2023-02-28T00:34:42;99979.00;;;-7.36;79.65
61109;BME280;46995;55.740;37.402;2023-02-28T00:37:09;99987.47;;;-7.23;78.96
61109;BME280;46995;55.740;37.402;2023-02-28T00:39:38;99971.31;;;-7.39;79.27
61109;BME280;46995;55.740;37.402;2023-02-28T00:42:05;100000.25;;;-7.22;79.08
61109;BME280;46995;55.740;37.402;2023-02-28T00:44:31;99983.19;;;-7.26;79.06
61109;BME280;46995;55.740;37.402;2023-02-28T00:46:58;99966.16;;;-7.36;78.97
61109;BME280;46995;55.740;37.402;2023-02-28T00:49:26;99989.94;;;-7.14;78.79
61109;BME280;46995;55.740;37.402;2023-02-28T00:51:54;99950.72;;;-7.29;78.99
61109;BME280;46995;55.740;37.402;2023-02-28T00:54:22;99973.69;;;-7.15;78.75
61109;BME280;46995;55.740;37.402;2023-02-28T00:56:50;99952.41;;;-7.23;78.28
61109;BME280;46995;55.740;37.402;2023-02-28T00:59:17;99959.25;;;-7.25;78.68
61109;BME280;46995;55.740;37.402;2023-02-28T01:01:44;99972.75;;;-7.05;78.35
61109;BME280;46995;55.740;37.402;2023-02-28T01:04:15;99964.22;;;-7.05;78.58
61109;BME280;46995;55.740;37.402;2023-02-28T01:06:41;99948.91;;;-7.16;78.00
61109;BME280;46995;55.740;37.402;2023-02-28T01:09:10;99957.41;;;-7.08;78.22
61109;BME280;46995;55.740;37.402;2023-02-28T01:11:36;99925.94;;;-7.30;77.95
61109;BME280;46995;55.740;37.402;2023-02-28T01:14:03;99947.31;;;-7.31;78.27
61109;BME280;46995;55.740;37.402;2023-02-28T01:16:29;99933.78;;;-7.49;78.27
61109;BME280;46995;55.740;37.402;2023-02-28T01:18:56;99938.88;;;-7.43;79.17
61109;BME280;46995;55.740;37.402;2023-02-28T01:21:23;99918.44;;;-7.55;78.97
61109;BME280;46995;55.740;37.402;2023-02-28T01:23:49;99927.81;;;-7.50;79.13
61109;BME280;46995;55.740;37.402;2023-02-28T01:26:20;99927.78;;;-7.48;79.45
61109;BME280;46995;55.740;37.402;2023-02-28T01:28:47;99879.25;;;-7.73;79.13
61109;BME280;46995;55.740;37.402;2023-02-28T01:31:13;99868.97;;;-7.69;78.96
61109;BME280;46995;55.740;37.402;2023-02-28T01:33:40;99907.28;;;-7.50;79.23
61109;BME280;46995;55.740;37.402;2023-02-28T01:36:11;99874.00;;;-7.57;79.27
61109;BME280;46995;55.740;37.402;2023-02-28T01:38:37;99874.84;;;-7.58;79.24
61109;BME280;46995;55.740;37.402;2023-02-28T01:41:04;99879.13;;;-7.57;79.46
61109;BME280;46995;55.740;37.402;2023-02-28T01:43:51;99851.84;;;-7.64;79.09
61109;BME280;46995;55.740;37.402;2023-02-28T01:46:17;99863.75;;;-7.56;79.13
61109;BME280;46995;55.740;37.402;2023-02-28T01:48:51;99889.31;;;-7.48;79.06
61109;BME280;46995;55.740;37.402;2023-02-28T01:51:22;99832.25;;;-7.72;78.69
61109;BME280;46995;55.740;37.402;2023-02-28T01:53:57;99860.28;;;-7.53;79.62
61109;BME280;46995;55.740;37.402;2023-02-28T01:56:29;99844.06;;;-7.54;79.30
61109;BME280;46995;55.740;37.402;2023-02-28T01:58:56;99844.03;;;-7.52;79.18
61109;BME280;46995;55.740;37.402;2023-02-28T02:01:23;99833.78;;;-7.52;79.08
61109;BME280;46995;55.740;37.402;2023-02-28T02:03:56;99828.75;;;-7.61;79.24
61109;BME280;46995;55.740;37.402;2023-02-28T02:06:37;99846.56;;;-7.48;79.56
61109;BME280;46995;55.740;37.402;2023-02-28T02:09:07;99838.09;;;-7.54;79.45
61109;BME280;46995;55.740;37.402;2023-02-28T02:11:35;99795.50;;;-7.72;79.57
61109;BME280;46995;55.740;37.402;2023-02-28T02:16:55;99822.72;;;-7.57;79.55
61109;BME280;46995;55.740;37.402;2023-02-28T02:40:22;99818.56;;;-7.72;79.76
61109;BME280;46995;55.740;37.402;2023-02-28T02:45:52;99805.81;;;-7.80;79.87
61109;BME280;46995;55.740;37.402;2023-02-28T02:48:26;99749.69;;;-8.10;79.43
61109;BME280;46995;55.740;37.402;2023-02-28T02:51:02;99798.13;;;-7.80;79.77
61109;BME280;46995;55.740;37.402;2023-02-28T02:53:36;99765.81;;;-8.00;79.83
61109;BME280;46995;55.740;37.402;2023-02-28T02:56:05;99747.97;;;-8.08;79.64
61109;BME280;46995;55.740;37.402;2023-02-28T02:58:35;99774.28;;;-7.86;80.17
61109;BME280;46995;55.740;37.402;2023-02-28T03:01:15;99773.38;;;-7.84;79.40
61109;BME280;46995;55.740;37.402;2023-02-28T03:03:43;99741.94;;;-8.01;79.90
61109;BME280;46995;55.740;37.402;2023-02-28T03:06:09;99749.59;;;-7.99;79.72
61109;BME280;46995;55.740;37.402;2023-02-28T03:08:37;99747.03;;;-7.99;79.71
61109;BME280;46995;55.740;37.402;2023-02-28T03:11:06;99746.13;;;-7.91;79.87
61109;BME280;46995;55.740;37.402;2023-02-28T03:14:00;99749.47;;;-7.83;79.65
61109;BME280;46995;55.740;37.402;2023-02-28T03:27:15;99683.13;;;-8.16;79.38
61109;BME280;46995;55.740;37.402;2023-02-28T03:29:46;99717.09;;;-7.93;79.57
61109;BME280;46995;55.740;37.402;2023-02-28T03:32:21;99734.13;;;-7.86;79.46
61109;BME280;46995;55.740;37.402;2023-02-28T03:34:57;99706.94;;;-8.02;79.54
61109;BME280;46995;55.740;37.402;2023-02-28T03:37:26;99714.47;;;-7.87;79.37
61109;BME280;46995;55.740;37.402;2023-02-28T03:40:08;99723.03;;;-7.86;79.49
61109;BME280;46995;55.740;37.402;2023-02-28T03:42:44;99701.78;;;-7.99;79.45
61109;BME280;46995;55.740;37.402;2023-02-28T03:45:16;99671.16;;;-8.14;79.62
61109;BME280;46995;55.740;37.402;2023-02-28T03:48:13;99688.19;;;-8.07;79.61
61109;BME280;46995;55.740;37.402;2023-02-28T03:50:41;99694.13;;;-8.03;79.22
61109;BME280;46995;55.740;37.402;2023-02-28T03:55:49;99693.13;;;-7.89;79.19
61109;BME280;46995;55.740;37.402;2023-02-28T03:58:35;99644.78;;;-8.22;79.50
61109;BME280;46995;55.740;37.402;2023-02-28T04:01:08;99684.63;;;-7.91;79.43
61109;BME280;46995;55.740;37.402;2023-02-28T04:03:39;99664.13;;;-7.94;79.34
61109;BME280;46995;55.740;37.402;2023-02-28T04:06:24;99662.44;;;-7.92;79.02
61109;BME280;46995;55.740;37.402;2023-02-28T04:08:51;99658.16;;;-7.94;78.92
61109;BME280;46995;55.740;37.402;2023-02-28T04:11:23;99639.47;;;-8.02;79.34
61109;BME280;46995;55.740;37.402;2023-02-28T04:13:50;99625.09;;;-8.17;78.88
61109;BME280;46995;55.740;37.402;2023-02-28T04:16:20;99654.81;;;-7.99;79.28
61109;BME280;46995;55.740;37.402;2023-02-28T04:18:46;99654.78;;;-7.96;78.96
61109;BME280;46995;55.740;37.402;2023-02-28T04:21:15;99654.75;;;-7.92;78.91
61109;BME280;46995;55.740;37.402;2023-02-28T04:23:46;99635.22;;;-8.05;79.00
61109;BME280;46995;55.740;37.402;2023-02-28T04:26:12;99622.44;;;-8.09;78.80
61109;BME280;46995;55.740;37.402;2023-02-28T04:28:41;99613.91;;;-8.07;78.36
61109;BME280;46995;55.740;37.402;2023-02-28T04:31:18;99621.53;;;-8.01;78.72
61109;BME280;46995;55.740;37.402;2023-02-28T04:33:49;99613.97;;;-8.16;78.43
61109;BME280;46995;55.740;37.402;2023-02-28T04:36:14;99635.09;;;-7.93;78.24
61109;BME280;46995;55.740;37.402;2023-02-28T04:38:46;99620.63;;;-8.00;78.05
61109;BME280;46995;55.740;37.402;2023-02-28T04:41:13;99563.63;;;-8.17;78.19
61109;BME280;46995;55.740;37.402;2023-02-28T04:43:39;99631.69;;;-7.92;78.25
61109;BME280;46995;55.740;37.402;2023-02-28T04:46:08;99631.63;;;-7.86;78.21
61109;BME280;46995;55.740;37.402;2023-02-28T04:48:40;99539.09;;;-8.36;78.38
61109;BME280;46995;55.740;37.402;2023-02-28T04:51:16;99560.97;;;-8.08;78.19
61109;BME280;46995;55.740;37.402;2023-02-28T04:54:04;99582.03;;;-7.82;77.24
61109;BME280;46995;55.740;37.402;2023-02-28T04:56:37;99609.19;;;-7.68;77.27
61109;BME280;46995;55.740;37.402;2023-02-28T04:59:03;99559.03;;;-7.89;77.63
61109;BME280;46995;55.740;37.402;2023-02-28T05:01:32;99585.25;;;-7.67;76.72
61109;BME280;46995;55.740;37.402;2023-02-28T05:04:03;99563.88;;;-7.65;76.98
61109;BME280;46995;55.740;37.402;2023-02-28T05:06:32;99532.47;;;-7.81;76.98
61109;BME280;46995;55.740;37.402;2023-02-28T05:08:58;99548.44;;;-7.59;76.44
61109;BME280;46995;55.740;37.402;2023-02-28T05:13:52;99528.72;;;-7.55;76.22
61109;BME280;46995;55.740;37.402;2023-02-28T05:16:19;99514.97;;;-7.51;75.37
61109;BME280;46995;55.740;37.402;2023-02-28T05:18:45;99536.13;;;-7.37;75.65
61109;BME280;46995;55.740;37.402;2023-02-28T05:21:27;99544.34;;;-7.14;74.67
61109;BME280;46995;55.740;37.402;2023-02-28T05:23:57;99542.66;;;-7.15;75.21
61109;BME280;46995;55.740;37.402;2023-02-28T05:26:25;99456.94;;;-7.58;74.70
61109;BME280;46995;55.740;37.402;2023-02-28T05:28:51;99498.56;;;-7.38;74.97
61109;BME280;46995;55.740;37.402;2023-02-28T05:31:26;99479.84;;;-7.46;75.04
61109;BME280;46995;55.740;37.402;2023-02-28T05:33:57;99528.03;;;-7.08;74.37
61109;BME280;46995;55.740;37.402;2023-02-28T05:36:23;99478.94;;;-7.42;73.73
61109;BME280;46995;55.740;37.402;2023-02-28T05:38:51;99500.00;;;-7.22;74.53
61109;BME280;46995;55.740;37.402;2023-02-28T05:41:17;99510.81;;;-7.02;74.91
61109;BME280;46995;55.740;37.402;2023-02-28T05:43:44;99448.94;;;-7.36;74.12
61109;BME280;46995;55.740;37.402;2023-02-28T05:46:12;99492.03;;;-7.04;74.12
61109;BME280;46995;55.740;37.402;2023-02-28T05:48:40;99440.28;;;-7.30;73.77
61109;BME280;46995;55.740;37.402;2023-02-28T05:51:09;99478.28;;;-7.00;74.09
61109;BME280;46995;55.740;37.402;2023-02-28T05:53:35;99478.28;;;-7.01;73.66
61109;BME280;46995;55.740;37.402;2023-02-28T05:56:02;99452.69;;;-7.04;73.69
61109;BME280;46995;55.740;37.402;2023-02-28T05:58:28;99425.47;;;-7.13;73.06
61109;BME280;46995;55.740;37.402;2023-02-28T06:01:18;99368.53;;;-7.33;72.85
61109;BME280;46995;55.740;37.402;2023-02-28T06:03:50;99425.97;;;-6.93;72.82
61109;BME280;46995;55.740;37.402;2023-02-28T06:06:16;99406.41;;;-7.00;72.34
61109;BME280;46995;55.740;37.402;2023-02-28T06:09:06;99416.88;;;-6.64;72.53
61109;BME280;46995;55.740;37.402;2023-02-28T06:11:59;99417.38;;;-6.44;72.11
61109;BME280;46995;55.740;37.402;2023-02-28T06:14:39;99425.66;;;-6.30;71.31
61109;BME280;46995;55.740;37.402;2023-02-28T06:18:02;99363.22;;;-6.35;71.11
61109;BME280;46995;55.740;37.402;2023-02-28T06:20:34;99385.78;;;-6.08;70.56
61109;BME280;46995;55.740;37.402;2023-02-28T06:23:01;99379.50;;;-5.96;70.02
61109;BME280;46995;55.740;37.402;2023-02-28T06:25:28;99368.06;;;-5.84;68.90
61109;BME280;46995;55.740;37.402;2023-02-28T06:27:56;99366.97;;;-5.74;69.37
61109;BME280;46995;55.740;37.402;2023-02-28T06:30:22;99315.16;;;-5.91;68.43
61109;BME280;46995;55.740;37.402;2023-02-28T06:32:50;99302.06;;;-5.84;67.74
61109;BME280;46995;55.740;37.402;2023-02-28T06:35:17;99340.03;;;-5.58;68.75
61109;BME280;46995;55.740;37.402;2023-02-28T06:37:43;99349.78;;;-5.37;69.47
61109;BME280;46995;55.740;37.402;2023-02-28T06:40:11;99371.28;;;-5.05;67.56
61109;BME280;46995;55.740;37.402;2023-02-28T06:42:38;99361.00;;;-5.05;68.02
61109;BME280;46995;55.740;37.402;2023-02-28T06:45:04;99337.00;;;-5.07;66.85
61109;BME280;46995;55.740;37.402;2023-02-28T06:47:35;99330.47;;;-4.87;67.10
61109;BME280;46995;55.740;37.402;2023-02-28T06:50:01;99355.50;;;-4.61;69.19
61109;BME280;46995;55.740;37.402;2023-02-28T06:52:28;99290.19;;;-4.89;66.39
61109;BME280;46995;55.740;37.402;2023-02-28T06:54:54;99339.91;;;-4.56;66.75
61109;BME280;46995;55.740;37.402;2023-02-28T06:57:28;99281.41;;;-4.82;66.97
61109;BME280;46995;55.740;37.402;2023-02-28T06:59:58;99303.16;;;-4.63;66.25
61109;BME280;46995;55.740;37.402;2023-02-28T07:02:24;99323.16;;;-4.42;67.33
61109;BME280;46995;55.740;37.402;2023-02-28T07:04:50;99290.09;;;-4.55;67.58
61109;BME280;46995;55.740;37.402;2023-02-28T07:07:16;99269.25;;;-4.49;66.97
61109;BME280;46995;55.740;37.402;2023-02-28T07:09:42;99295.25;;;-4.28;66.93
61109;BME280;46995;55.740;37.402;2023-02-28T07:12:07;99272.94;;;-4.29;67.72
61109;BME280;46995;55.740;37.402;2023-02-28T07:14:33;99286.09;;;-4.08;66.98
61109;BME280;46995;55.740;37.402;2023-02-28T07:16:59;99274.78;;;-4.04;66.69
61109;BME280;46995;55.740;37.402;2023-02-28T07:19:30;99205.47;;;-4.41;66.09
61109;BME280;46995;55.740;37.402;2023-02-28T07:21:55;99239.84;;;-4.14;66.79
61109;BME280;46995;55.740;37.402;2023-02-28T07:24:21;99264.75;;;-3.87;67.12
61109;BME280;46995;55.740;37.402;2023-02-28T07:26:51;99244.22;;;-3.90;66.51
61109;BME280;46995;55.740;37.402;2023-02-28T07:29:17;99249.03;;;-3.79;66.16
61109;BME280;46995;55.740;37.402;2023-02-28T07:31:43;99266.91;;;-3.73;66.22
61109;BME280;46995;55.740;37.402;2023-02-28T07:34:08;99264.28;;;-3.72;66.46
61109;BME280;46995;55.740;37.402;2023-02-28T07:36:34;99259.84;;;-3.68;65.96
61109;BME280;46995;55.740;37.402;2023-02-28T07:39:00;99244.44;;;-3.71;66.65
61109;BME280;46995;55.740;37.402;2023-02-28T07:41:26;99211.53;;;-3.90;67.02
61109;BME280;46995;55.740;37.402;2023-02-28T07:43:55;99177.22;;;-3.92;66.84
61109;BME280;46995;55.740;37.402;2023-02-28T07:46:26;99194.75;;;-3.76;66.44
61109;BME280;46995;55.740;37.402;2023-02-28T07:49:06;99208.59;;;-3.54;66.14
61109;BME280;46995;55.740;37.402;2023-02-28T07:51:33;99223.72;;;-3.44;66.57
61109;BME280;46995;55.740;37.402;2023-02-28T07:53:58;99175.34;;;-3.62;66.77
61109;BME280;46995;55.740;37.402;2023-02-28T07:56:25;99190.63;;;-3.32;66.88
61109;BME280;46995;55.740;37.402;2023-02-28T07:58:51;99198.03;;;-3.23;66.02
61109;BME280;46995;55.740;37.402;2023-02-28T08:01:20;99201.00;;;-3.09;66.62
61109;BME280;46995;55.740;37.402;2023-02-28T08:03:46;99175.59;;;-3.21;65.90
61109;BME280;46995;55.740;37.402;2023-02-28T08:06:31;99199.59;;;-2.94;66.23
61109;BME280;46995;55.740;37.402;2023-02-28T08:08:56;99195.72;;;-2.83;66.16
61109;BME280;46995;55.740;37.402;2023-02-28T08:11:24;99194.28;;;-2.68;65.73
61109;BME280;46995;55.740;37.402;2023-02-28T08:13:50;99167.38;;;-2.63;65.29
61109;BME280;46995;55.740;37.402;2023-02-28T08:16:16;99145.44;;;-2.52;65.35
61109;BME280;46995;55.740;37.402;2023-02-28T08:18:53;99173.69;;;-2.26;64.86
61109;BME280;46995;55.740;37.402;2023-02-28T08:21:19;99159.06;;;-2.27;65.44
61109;BME280;46995;55.740;37.402;2023-02-28T08:23:50;99135.78;;;-2.27;65.11
61109;BME280;46995;55.740;37.402;2023-02-28T08:26:19;99107.44;;;-2.30;64.86
61109;BME280;46995;55.740;37.402;2023-02-28T08:28:46;99114.19;;;-2.26;64.83
61109;BME280;46995;55.740;37.402;2023-02-28T08:31:14;99107.09;;;-2.21;64.95
61109;BME280;46995;55.740;37.402;2023-02-28T08:33:43;99106.13;;;-2.19;65.67
61109;BME280;46995;55.740;37.402;2023-02-28T08:36:10;99065.81;;;-2.24;64.89
61109;BME280;46995;55.740;37.402;2023-02-28T08:38:38;99066.88;;;-2.28;65.02
61109;BME280;46995;55.740;37.402;2023-02-28T08:41:08;99159.16;;;-2.30;65.14
61109;BME280;46995;55.740;37.402;2023-02-28T08:43:40;99194.78;;;-2.15;65.63
61109;BME280;46995;55.740;37.402;2023-02-28T08:46:08;99198.47;;;-2.21;66.35
61109;BME280;46995;55.740;37.402;2023-02-28T08:48:36;99188.53;;;-2.31;66.26
61109;BME280;46995;55.740;37.402;2023-02-28T08:51:10;99185.16;;;-2.33;66.65
61109;BME280;46995;55.740;37.402;2023-02-28T08:53:37;99154.09;;;-2.53;67.46
61109;BME280;46995;55.740;37.402;2023-02-28T08:56:04;99175.47;;;-2.28;67.99
61109;BME280;46995;55.740;37.402;2023-02-28T08:58:34;99111.88;;;-2.76;66.85
61109;BME280;46995;55.740;37.402;2023-02-28T09:01:06;99121.94;;;-2.68;66.79
61109;BME280;46995;55.740;37.402;2023-02-28T09:03:33;99114.19;;;-2.68;67.25
61109;BME280;46995;55.740;37.402;2023-02-28T09:06:00;99136.41;;;-2.64;67.59
61109;BME280;46995;55.740;37.402;2023-02-28T09:08:29;99140.06;;;-2.70;67.84
61109;BME280;46995;55.740;37.402;2023-02-28T09:10:58;99126.34;;;-2.72;67.91
61109;BME280;46995;55.740;37.402;2023-02-28T09:13:25;99119.16;;;-2.64;68.07
61109;BME280;46995;55.740;37.402;2023-02-28T09:16:23;99127.84;;;-2.44;68.34
61109;BME280;46995;55.740;37.402;2023-02-28T09:18:50;99071.09;;;-2.68;67.79
61109;BME280;46995;55.740;37.402;2023-02-28T09:21:17;99116.19;;;-2.33;68.33
61109;BME280;46995;55.740;37.402;2023-02-28T09:23:45;99077.78;;;-2.42;67.54
61109;BME280;46995;55.740;37.402;2023-02-28T09:26:24;99122.22;;;-2.12;67.54
61109;BME280;46995;55.740;37.402;2023-02-28T09:28:53;99121.16;;;-2.28;67.70
61109;BME280;46995;55.740;37.402;2023-02-28T09:31:24;99081.84;;;-2.57;67.74
61109;BME280;46995;55.740;37.402;2023-02-28T09:33:55;99117.78;;;-2.30;68.30
61109;BME280;46995;55.740;37.402;2023-02-28T09:36:26;99116.91;;;-2.29;67.98
61109;BME280;46995;55.740;37.402;2023-02-28T09:38:53;99055.69;;;-2.71;68.03
61109;BME280;46995;55.740;37.402;2023-02-28T09:44:06;99059.31;;;-2.75;68.35
61109;BME280;46995;55.740;37.402;2023-02-28T09:46:41;99104.72;;;-2.47;68.26
61109;BME280;46995;55.740;37.402;2023-02-28T09:49:14;99116.19;;;-2.33;68.21
61109;BME280;46995;55.740;37.402;2023-02-28T09:57:40;99057.13;;;-2.64;68.23
61109;BME280;46995;55.740;37.402;2023-02-28T10:00:18;99020.78;;;-2.81;69.35
61109;BME280;46995;55.740;37.402;2023-02-28T10:05:37;99068.16;;;-2.38;68.49
61109;BME280;46995;55.740;37.402;2023-02-28T10:08:19;99037.63;;;-2.50;68.61
61109;BME280;46995;55.740;37.402;2023-02-28T10:11:12;99026.88;;;-2.62;69.01
61109;BME280;46995;55.740;37.402;2023-02-28T10:16:47;99016.84;;;-2.47;68.60
61109;BME280;46995;55.740;37.402;2023-02-28T10:22:00;99028.41;;;-2.36;68.62
61109;BME280;46995;55.740;37.402;2023-02-28T10:24:32;99035.44;;;-2.19;69.11
61109;BME280;46995;55.740;37.402;2023-02-28T10:27:21;99009.97;;;-2.28;69.43
61109;BME280;46995;55.740;37.402;2023-02-28T10:29:54;99041.84;;;-2.07;68.62
61109;BME280;46995;55.740;37.402;2023-02-28T10:32:27;98962.34;;;-2.43;69.46
61109;BME280;46995;55.740;37.402;2023-02-28T10:35:13;99033.19;;;-2.06;69.05
61109;BME280;46995;55.740;37.402;2023-02-28T10:37:42;98999.00;;;-2.33;69.23
61109;BME280;46995;55.740;37.402;2023-02-28T10:40:34;99023.88;;;-2.10;69.80
61109;BME280;46995;55.740;37.402;2023-02-28T10:43:18;99005.34;;;-2.20;69.54
61109;BME280;46995;55.740;37.402;2023-02-28T10:48:38;98954.06;;;-2.51;69.35
61109;BME280;46995;55.740;37.402;2023-02-28T10:51:08;99012.06;;;-2.16;69.58
61109;BME280;46995;55.740;37.402;2023-02-28T10:58:57;98995.16;;;-2.04;69.58
61109;BME280;46995;55.740;37.402;2023-02-28T11:01:34;98897.38;;;-2.74;69.78
61109;BME280;46995;55.740;37.402;2023-02-28T11:04:23;98895.63;;;-2.74;70.50
61109;BME280;46995;55.740;37.402;2023-02-28T11:07:20;98893.94;;;-2.75;70.42
61109;BME280;46995;55.740;37.402;2023-02-28T11:09:50;98939.28;;;-2.47;70.43
61109;BME280;46995;55.740;37.402;2023-02-28T11:12:28;98987.34;;;-2.23;71.20
61109;BME280;46995;55.740;37.402;2023-02-28T11:15:00;98931.84;;;-2.55;71.05
61109;BME280;46995;55.740;37.402;2023-02-28T11:17:31;98958.03;;;-2.42;70.54
61109;BME280;46995;55.740;37.402;2023-02-28T11:20:04;98912.16;;;-2.58;71.16
61109;BME280;46995;55.740;37.402;2023-02-28T11:22:36;98924.88;;;-2.53;70.84
61109;BME280;46995;55.740;37.402;2023-02-28T11:25:13;98927.13;;;-2.45;71.61
61109;BME280;46995;55.740;37.402;2023-02-28T11:27:54;98904.22;;;-2.53;71.82
61109;BME280;46995;55.740;37.402;2023-02-28T11:30:25;98976.00;;;-2.00;70.89
61109;BME280;46995;55.740;37.402;2023-02-28T11:32:52;98960.91;;;-2.09;70.66
61109;BME280;46995;55.740;37.402;2023-02-28T11:35:26;98981.09;;;-1.99;71.07
61109;BME280;46995;55.740;37.402;2023-02-28T11:37:53;98922.97;;;-2.29;71.53
61109;BME280;46995;55.740;37.402;2023-02-28T11:41:12;98932.63;;;-2.14;71.97
61109;BME280;46995;55.740;37.402;2023-02-28T11:46:11;98927.50;;;-1.95;76.49
61109;BME280;46995;55.740;37.402;2023-02-28T12:00:08;98917.41;;;-2.20;77.08
61109;BME280;46995;55.740;37.402;2023-02-28T12:02:53;98923.88;;;-2.30;77.75
61109;BME280;46995;55.740;37.402;2023-02-28T12:05:37;98927.59;;;-2.17;79.35
61109;BME280;46995;55.740;37.402;2023-02-28T12:13:46;98916.41;;;-2.36;80.65
61109;BME280;46995;55.740;37.402;2023-02-28T12:26:53;98898.53;;;-2.22;79.94
61109;BME280;46995;55.740;37.402;2023-02-28T12:32:07;98906.06;;;-2.18;79.41
61109;BME280;46995;55.740;37.402;2023-02-28T12:34:49;98899.44;;;-2.23;79.44
61109;BME280;46995;55.740;37.402;2023-02-28T12:37:33;98875.34;;;-2.44;80.56
61109;BME280;46995;55.740;37.402;2023-02-28T12:40:08;98877.50;;;-2.53;80.73
61109;BME280;46995;55.740;37.402;2023-02-28T12:42:40;98860.84;;;-2.67;81.17
61109;BME280;46995;55.740;37.402;2023-02-28T12:45:13;98822.84;;;-2.83;81.56
61109;BME280;46995;55.740;37.402;2023-02-28T12:47:46;98860.47;;;-2.58;80.76
61109;BME280;46995;55.740;37.402;2023-02-28T12:50:15;98885.38;;;-2.36;81.00
61109;BME280;46995;55.740;37.402;2023-02-28T12:53:12;98873.41;;;-2.39;80.89
61109;BME280;46995;55.740;37.402;2023-02-28T12:58:27;98851.53;;;-2.50;80.88
61109;BME280;46995;55.740;37.402;2023-02-28T13:03:58;98834.16;;;-2.28;80.97
61109;BME280;46995;55.740;37.402;2023-02-28T13:09:40;98809.16;;;-2.46;79.70
61109;BME280;46995;55.740;37.402;2023-02-28T13:12:17;98822.91;;;-2.27;79.95
61109;BME280;46995;55.740;37.402;2023-02-28T13:14:43;98823.97;;;-2.31;80.51
61109;BME280;46995;55.740;37.402;2023-02-28T13:17:12;98808.50;;;-2.33;80.17
61109;BME280;46995;55.740;37.402;2023-02-28T13:19:43;98812.41;;;-2.24;79.97
61109;BME280;46995;55.740;37.402;2023-02-28T13:27:53;98824.78;;;-2.12;79.83
61109;BME280;46995;55.740;37.402;2023-02-28T13:38:59;98812.25;;;-2.02;79.84
61109;BME280;46995;55.740;37.402;2023-02-28T13:44:14;98798.81;;;-1.92;78.95
61109;BME280;46995;55.740;37.402;2023-02-28T13:51:52;98775.66;;;-2.12;79.78
61109;BME280;46995;55.740;37.402;2023-02-28T14:05:38;98772.00;;;-2.08;79.57
61109;BME280;46995;55.740;37.402;2023-02-28T14:08:17;98771.88;;;-2.05;79.88
61109;BME280;46995;55.740;37.402;2023-02-28T14:10:51;98793.81;;;-1.95;80.33
61109;BME280;46995;55.740;37.402;2023-02-28T14:13:41;98790.31;;;-1.94;80.51
61109;BME280;46995;55.740;37.402;2023-02-28T14:16:14;98786.94;;;-1.96;80.89
61109;BME280;46995;55.740;37.402;2023-02-28T14:18:49;98785.75;;;-1.89;80.62
61109;BME280;46995;55.740;37.402;2023-02-28T14:21:33;98757.72;;;-1.98;80.04
61109;BME280;46995;55.740;37.402;2023-02-28T14:33:26;98764.72;;;-1.83;80.64
61109;BME280;46995;55.740;37.402;2023-02-28T14:38:27;98732.28;;;-2.07;81.98
61109;BME280;46995;55.740;37.402;2023-02-28T14:40:55;98728.13;;;-2.09;82.32
61109;BME280;46995;55.740;37.402;2023-02-28T14:43:26;98695.59;;;-2.32;83.28
61109;BME280;46995;55.740;37.402;2023-02-28T14:45:58;98730.91;;;-2.14;82.92
61109;BME280;46995;55.740;37.402;2023-02-28T14:48:25;98739.16;;;-2.06;83.32
61109;BME280;46995;55.740;37.402;2023-02-28T14:50:58;98730.47;;;-2.05;83.88
61109;BME280;46995;55.740;37.402;2023-02-28T14:53:27;98740.66;;;-2.02;84.06
61109;BME280;46995;55.740;37.402;2023-02-28T14:55:54;98698.72;;;-2.26;83.87
61109;BME280;46995;55.740;37.402;2023-02-28T14:58:29;98728.81;;;-2.06;84.76
61109;BME280;46995;55.740;37.402;2023-02-28T15:00:57;98724.31;;;-2.02;84.41
61109;BME280;46995;55.740;37.402;2023-02-28T15:03:43;98740.44;;;-1.97;84.28
61109;BME280;46995;55.740;37.402;2023-02-28T15:06:15;98740.09;;;-1.90;84.15
61109;BME280;46995;55.740;37.402;2023-02-28T15:08:45;98746.78;;;-1.86;84.27
61109;BME280;46995;55.740;37.402;2023-02-28T15:11:16;98728.06;;;-1.91;84.43
61109;BME280;46995;55.740;37.402;2023-02-28T15:13:50;98731.72;;;-1.78;85.47
61109;BME280;46995;55.740;37.402;2023-02-28T15:16:20;98716.50;;;-1.84;85.62
61109;BME280;46995;55.740;37.402;2023-02-28T15:19:14;98725.50;;;-1.74;86.14
61109;BME280;46995;55.740;37.402;2023-02-28T15:21:46;98732.19;;;-1.69;86.23
61109;BME280;46995;55.740;37.402;2023-02-28T15:24:18;98723.03;;;-1.77;85.61
61109;BME280;46995;55.740;37.402;2023-02-28T15:26:54;98712.06;;;-1.82;85.64
61109;BME280;46995;55.740;37.402;2023-02-28T15:29:24;98698.22;;;-1.81;85.76
61109;BME280;46995;55.740;37.402;2023-02-28T15:31:56;98713.38;;;-1.73;85.53
61109;BME280;46995;55.740;37.402;2023-02-28T15:34:38;98726.78;;;-1.65;85.81
61109;BME280;46995;55.740;37.402;2023-02-28T15:40:23;98682.63;;;-1.79;85.56
61109;BME280;46995;55.740;37.402;2023-02-28T15:43:14;98714.44;;;-1.60;85.20
61109;BME280;46995;55.740;37.402;2023-02-28T15:45:45;98616.97;;;-2.11;85.16
61109;BME280;46995;55.740;37.402;2023-02-28T15:48:26;98661.47;;;-1.87;85.44
61109;BME280;46995;55.740;37.402;2023-02-28T15:51:39;98616.66;;;-2.05;85.43